createdAt,value
2018-03-17T00:00:08.736Z,101378.34
2018-03-17T00:01:14.014Z,101371.65
2018-03-17T00:02:19.978Z,101382.07
2018-03-17T00:03:25.858Z,101381.02
2018-03-17T00:04:31.428Z,101378.65
2018-03-17T00:05:36.219Z,101380.59
2018-03-17T00:06:40.928Z,101382.41
2018-03-17T00:07:45.650Z,101384.16
2018-03-17T00:08:50.461Z,101377.81
2018-03-17T00:09:55.374Z,101354.44
2018-03-17T00:11:00.110Z,101380.48
2018-03-17T00:12:04.900Z,101380.05
2018-03-17T00:13:09.678Z,101374.38
2018-03-17T00:14:14.368Z,101365.77
2018-03-17T00:15:19.741Z,101390.45
2018-03-17T00:16:25.364Z,101371.18
2018-03-17T00:17:30.113Z,101376.77
2018-03-17T00:18:35.548Z,101374.83
2018-03-17T00:19:40.491Z,101379.87
2018-03-17T00:20:45.690Z,101388.39
2018-03-17T00:21:50.596Z,101383.03
2018-03-17T00:22:55.483Z,101374.34
2018-03-17T00:24:00.420Z,101352.98
2018-03-17T00:25:05.336Z,101375.91
2018-03-17T00:26:10.147Z,101373.40
2018-03-17T00:27:15.435Z,101385.33
2018-03-17T00:28:21.106Z,101377.97
2018-03-17T00:29:26.762Z,101381.01
2018-03-17T00:30:32.055Z,101365.59
2018-03-17T00:31:36.807Z,101376.36
2018-03-17T00:32:41.595Z,101382.99
2018-03-17T00:33:46.613Z,101391.77
2018-03-17T00:34:51.581Z,101382.99
2018-03-17T00:35:56.331Z,101384.16
2018-03-17T00:37:01.242Z,101382.31
2018-03-17T00:38:06.694Z,101385.42
2018-03-17T00:39:11.574Z,101381.69
2018-03-17T00:40:16.722Z,101380.10
2018-03-17T00:41:21.706Z,101379.53
2018-03-17T00:42:26.665Z,101384.13
2018-03-17T00:43:32.301Z,101381.96
2018-03-17T00:44:37.741Z,101375.17
2018-03-17T00:45:43.164Z,101392.27
2018-03-17T00:46:48.032Z,101390.04
2018-03-17T00:47:53.193Z,101378.44
2018-03-17T00:48:58.174Z,101394.84
2018-03-17T00:50:03.331Z,101383.98
2018-03-17T00:51:08.328Z,101393.03
2018-03-17T00:52:13.193Z,101387.06
2018-03-17T00:53:18.291Z,101399.98
2018-03-17T00:54:23.782Z,101379.80
2018-03-17T00:55:28.757Z,101394.97
2018-03-17T00:56:34.599Z,101393.28
2018-03-17T00:57:39.639Z,101389.55
2018-03-17T00:58:44.570Z,101388.38
2018-03-17T00:59:49.891Z,101384.11
2018-03-17T01:00:54.884Z,101391.95
2018-03-17T01:01:59.834Z,101388.84
2018-03-17T01:03:04.816Z,101394.13
2018-03-17T01:04:09.907Z,101386.81
2018-03-17T01:05:15.064Z,101381.05
2018-03-17T01:06:20.139Z,101382.78
2018-03-17T01:07:26.045Z,101394.20
2018-03-17T01:08:31.076Z,101391.05
2018-03-17T01:09:36.128Z,101384.53
2018-03-17T01:10:41.147Z,101376.18
2018-03-17T01:11:45.875Z,101362.29
2018-03-17T01:12:51.488Z,101366.13
2018-03-17T01:13:56.347Z,101385.70
2018-03-17T01:15:03.139Z,101397.48
2018-03-17T01:16:08.584Z,101375.13
2018-03-17T01:17:13.798Z,101365.53
2018-03-17T01:18:18.841Z,101378.38
2018-03-17T01:19:24.142Z,101386.23
2018-03-17T01:20:29.322Z,101389.30
2018-03-17T01:21:35.495Z,101383.20
2018-03-17T01:22:40.556Z,101385.75
2018-03-17T01:23:45.364Z,101371.01
2018-03-17T01:24:50.472Z,101385.41
2018-03-17T01:25:55.867Z,101386.42
2018-03-17T01:27:01.018Z,101379.17
2018-03-17T01:28:06.123Z,101369.88
2018-03-17T01:29:11.331Z,101357.96
2018-03-17T01:30:17.113Z,101367.95
2018-03-17T01:31:23.289Z,101379.31
2018-03-17T01:32:29.510Z,101371.55
2018-03-17T01:33:34.632Z,101369.33
2018-03-17T01:34:39.813Z,101376.66
2018-03-17T01:35:44.907Z,101366.50
2018-03-17T01:36:50.114Z,101352.73
2018-03-17T01:37:55.461Z,101380.00
2018-03-17T01:39:00.895Z,101376.55
2018-03-17T01:40:06.589Z,101372.98
2018-03-17T01:41:11.685Z,101372.04
2018-03-17T01:42:16.740Z,101366.39
2018-03-17T01:43:21.956Z,101370.44
2018-03-17T01:44:27.131Z,101365.84
2018-03-17T01:45:32.685Z,101375.94
2018-03-17T01:46:38.943Z,101337.33
2018-03-17T01:47:44.297Z,101364.17
2018-03-17T01:48:49.413Z,101366.32
2018-03-17T01:49:54.688Z,101351.38
2018-03-17T01:51:00.372Z,101362.08
2018-03-17T01:52:05.681Z,101366.10
2018-03-17T01:53:10.905Z,101355.42
2018-03-17T01:54:24.347Z,101357.30
2018-03-17T01:55:30.514Z,101359.59
2018-03-17T01:56:35.695Z,101354.59
2018-03-17T01:57:41.923Z,101352.33
2018-03-17T01:58:46.942Z,101311.11
2018-03-17T01:59:52.382Z,101360.50
2018-03-17T02:00:57.692Z,101326.56
2018-03-17T02:02:03.093Z,101347.80
2018-03-17T02:03:08.169Z,101346.47
2018-03-17T02:04:13.572Z,101353.11
2018-03-17T02:05:18.652Z,101350.94
2018-03-17T02:06:24.155Z,101346.45
2018-03-17T02:07:30.354Z,101350.37
2018-03-17T02:08:35.482Z,101347.36
2018-03-17T02:09:41.615Z,101344.26
2018-03-17T02:10:46.846Z,101348.44
2018-03-17T02:11:52.190Z,101347.97
2018-03-17T02:12:57.411Z,101340.62
2018-03-17T02:14:02.705Z,101343.94
2018-03-17T02:15:08.395Z,101323.31
2018-03-17T02:16:14.012Z,101334.78
2018-03-17T02:17:19.150Z,101348.73
2018-03-17T02:18:24.462Z,101346.36
2018-03-17T02:19:30.334Z,101336.98
2018-03-17T02:20:35.387Z,101345.52
2018-03-17T02:21:40.434Z,101341.49
2018-03-17T02:22:45.626Z,101353.33
2018-03-17T02:23:50.712Z,101361.19
2018-03-17T02:24:56.137Z,101340.58
2018-03-17T02:26:01.363Z,101347.60
2018-03-17T02:27:06.179Z,101356.55
2018-03-17T02:28:11.413Z,101341.09
2018-03-17T02:29:16.643Z,101328.08
2018-03-17T02:30:22.436Z,101332.69
2018-03-17T02:31:28.017Z,101338.72
2018-03-17T02:32:33.232Z,101354.77
2018-03-17T02:33:38.515Z,101347.91
2018-03-17T02:34:43.706Z,101326.53
2018-03-17T02:35:48.892Z,101339.72
2018-03-17T02:36:54.365Z,101352.67
2018-03-17T02:37:59.390Z,101340.13
2018-03-17T02:39:04.589Z,101316.11
2018-03-17T02:40:09.447Z,101352.25
2018-03-17T02:41:14.524Z,101338.52
2018-03-17T02:42:20.039Z,101336.15
2018-03-17T02:43:25.264Z,101332.36
2018-03-17T02:44:31.100Z,101332.83
2018-03-17T02:46:42.609Z,101328.94
2018-03-17T02:47:47.952Z,101318.14
2018-03-17T02:48:53.324Z,101325.41
2018-03-17T02:49:58.357Z,101341.22
2018-03-17T02:51:03.421Z,101308.27
2018-03-17T02:52:08.125Z,101341.94
2018-03-17T02:53:13.337Z,101336.80
2018-03-17T02:54:18.217Z,101344.17
2018-03-17T02:55:23.859Z,101344.88
2018-03-17T02:56:30.574Z,101354.53
2018-03-17T02:57:35.499Z,101348.86
2018-03-17T02:58:40.755Z,101357.61
2018-03-17T02:59:45.568Z,101335.84
2018-03-17T03:00:51.431Z,101354.11
2018-03-17T03:01:56.140Z,101338.97
2018-03-17T03:03:01.020Z,101347.95
2018-03-17T03:04:06.319Z,101336.86
2018-03-17T03:05:11.389Z,101331.61
2018-03-17T03:06:16.558Z,101317.83
2018-03-17T03:07:21.580Z,101345.89
2018-03-17T03:08:26.634Z,101348.84
2018-03-17T03:09:32.402Z,101327.44
2018-03-17T03:10:37.915Z,101332.86
2018-03-17T03:11:42.496Z,101350.41
2018-03-17T03:12:47.114Z,101342.99
2018-03-17T03:13:52.148Z,101345.14
2018-03-17T03:14:56.890Z,101347.94
2018-03-17T03:16:01.820Z,101336.98
2018-03-17T03:17:07.243Z,101339.13
2018-03-17T03:18:11.896Z,101341.06
2018-03-17T03:19:16.677Z,101349.54
2018-03-17T03:20:22.373Z,101349.92
2018-03-17T03:21:27.217Z,101344.61
2018-03-17T03:22:32.759Z,101348.94
2018-03-17T03:23:37.211Z,101348.54
2018-03-17T03:24:41.801Z,101351.58
2018-03-17T03:25:46.186Z,101331.31
2018-03-17T03:26:50.934Z,101342.45
2018-03-17T03:27:55.468Z,101315.39
2018-03-17T03:29:00.122Z,101336.60
2018-03-17T03:30:06.767Z,101343.60
2018-03-17T03:31:11.750Z,101345.80
2018-03-17T03:32:16.957Z,101351.70
2018-03-17T03:33:22.175Z,101343.41
2018-03-17T03:34:27.120Z,101346.56
2018-03-17T03:35:32.587Z,101357.75
2018-03-17T03:36:38.242Z,101344.94
2018-03-17T03:37:42.898Z,101366.55
2018-03-17T03:38:47.534Z,101319.59
2018-03-17T03:39:52.133Z,101354.23
2018-03-17T03:40:56.759Z,101340.22
2018-03-17T03:42:01.131Z,101343.71
2018-03-17T03:43:05.939Z,101347.59
2018-03-17T03:44:10.989Z,101342.94
2018-03-17T03:45:17.411Z,101351.09
2018-03-17T03:46:22.303Z,101333.59
2018-03-17T03:47:26.899Z,101334.81
2018-03-17T03:48:31.413Z,101319.30
2018-03-17T03:49:37.286Z,101349.68
2018-03-17T03:50:42.191Z,101343.30
2018-03-17T03:51:47.464Z,101357.39
2018-03-17T03:52:52.402Z,101340.66
2018-03-17T03:53:56.985Z,101340.69
2018-03-17T03:55:01.431Z,101338.45
2018-03-17T03:56:07.184Z,101333.34
2018-03-17T03:57:11.658Z,101343.49
2018-03-17T03:58:16.484Z,101339.08
2018-03-17T03:59:21.123Z,101343.02
2018-03-17T04:00:25.859Z,101316.95
2018-03-17T04:01:31.161Z,101352.67
2018-03-17T04:02:36.478Z,101349.81
2018-03-17T04:03:41.453Z,101355.92
2018-03-17T04:04:46.443Z,101347.38
2018-03-17T04:05:51.222Z,101350.09
2018-03-17T04:06:55.881Z,101342.57
2018-03-17T04:08:00.501Z,101326.69
2018-03-17T04:09:05.843Z,101348.04
2018-03-17T04:10:10.523Z,101349.76
2018-03-17T04:11:16.002Z,101341.36
2018-03-17T04:12:20.498Z,101346.77
2018-03-17T04:13:24.821Z,101351.50
2018-03-17T04:14:29.518Z,101336.39
2018-03-17T04:15:35.348Z,101348.40
2018-03-17T04:16:40.587Z,101351.33
2018-03-17T04:17:45.527Z,101337.36
2018-03-17T04:18:50.027Z,101343.31
2018-03-17T04:19:54.337Z,101346.75
2018-03-17T04:20:58.825Z,101345.65
2018-03-17T04:22:03.517Z,101340.61
2018-03-17T04:23:08.828Z,101328.15
2018-03-17T04:24:13.121Z,101350.28
2018-03-17T04:25:17.700Z,101341.86
2018-03-17T04:26:22.334Z,101349.62
2018-03-17T04:27:27.531Z,101346.48
2018-03-17T04:28:32.201Z,101357.09
2018-03-17T04:29:37.329Z,101344.35
2018-03-17T04:30:42.291Z,101357.22
2018-03-17T04:31:47.701Z,101347.09
2018-03-17T04:32:52.054Z,101356.03
2018-03-17T04:33:56.470Z,101345.63
2018-03-17T04:35:00.755Z,101348.77
2018-03-17T04:36:05.974Z,101367.57
2018-03-17T04:37:10.264Z,101360.41
2018-03-17T04:38:14.617Z,101350.28
2018-03-17T04:39:19.095Z,101354.09
2018-03-17T04:40:23.733Z,101363.27
2018-03-17T04:41:28.116Z,101353.17
2018-03-17T04:42:32.500Z,101358.20
2018-03-17T04:43:36.960Z,101364.63
2018-03-17T04:44:41.377Z,101348.48
2018-03-17T04:45:46.789Z,101367.79
2018-03-17T04:46:51.387Z,101371.55
2018-03-17T04:47:55.685Z,101363.70
2018-03-17T04:49:00.185Z,101361.05
2018-03-17T04:50:04.534Z,101372.24
2018-03-17T04:51:08.937Z,101362.02
2018-03-17T04:52:13.752Z,101370.50
2018-03-17T04:53:18.615Z,101382.03
2018-03-17T04:54:23.106Z,101369.56
2018-03-17T04:55:27.530Z,101375.81
2018-03-17T04:56:31.966Z,101369.94
2018-03-17T04:57:37.268Z,101387.36
2018-03-17T04:58:42.362Z,101368.14
2018-03-17T04:59:46.954Z,101335.69
2018-03-17T05:00:51.358Z,101373.83
2018-03-17T05:01:55.909Z,101373.73
2018-03-17T05:03:00.531Z,101380.80
2018-03-17T05:04:05.851Z,101381.80
2018-03-17T05:05:10.576Z,101373.73
2018-03-17T05:06:15.129Z,101377.20
2018-03-17T05:07:19.488Z,101377.44
2018-03-17T05:08:24.003Z,101373.44
2018-03-17T05:09:28.624Z,101381.23
2018-03-17T05:10:33.229Z,101397.44
2018-03-17T05:11:37.842Z,101388.53
2018-03-17T05:12:43.311Z,101381.52
2018-03-17T05:13:48.224Z,101388.76
2018-03-17T05:14:52.641Z,101393.08
2018-03-17T05:15:57.861Z,101387.62
2018-03-17T05:17:02.862Z,101388.88
2018-03-17T05:18:07.616Z,101386.24
2018-03-17T05:19:12.411Z,101396.25
2018-03-17T05:20:17.130Z,101396.11
2018-03-17T05:21:22.159Z,101391.12
2018-03-17T05:22:26.482Z,101383.98
2018-03-17T05:23:31.441Z,101369.63
2018-03-17T05:24:35.918Z,101393.05
2018-03-17T05:25:40.236Z,101388.73
2018-03-17T05:26:44.585Z,101383.41
2018-03-17T05:27:48.932Z,101380.47
2018-03-17T05:28:53.564Z,101393.53
2018-03-17T05:29:58.338Z,101377.77
2018-03-17T05:31:03.002Z,101352.84
2018-03-17T05:32:07.365Z,101384.50
2018-03-17T05:33:11.747Z,101381.16
2018-03-17T05:34:16.162Z,101390.19
2018-03-17T05:35:20.660Z,101382.22
2018-03-17T05:36:25.486Z,101370.84
2018-03-17T05:37:29.778Z,101389.39
2018-03-17T05:38:34.448Z,101389.77
2018-03-17T05:39:39.359Z,101381.28
2018-03-17T05:40:44.177Z,101374.32
2018-03-17T05:41:48.884Z,101384.06
2018-03-17T05:42:53.371Z,101394.69
2018-03-17T05:43:58.163Z,101364.00
2018-03-17T05:45:04.058Z,101380.95
2018-03-17T05:46:08.934Z,101387.58
2018-03-17T05:47:13.342Z,101379.00
2018-03-17T05:48:17.846Z,101359.66
2018-03-17T05:49:23.330Z,101383.23
2018-03-17T05:50:28.342Z,101383.70
2018-03-17T05:51:33.725Z,101394.78
2018-03-17T05:52:38.750Z,101382.58
2018-03-17T05:53:43.750Z,101384.80
2018-03-17T05:54:48.394Z,101384.83
2018-03-17T05:55:53.655Z,101392.59
2018-03-17T05:56:58.398Z,101386.94
2018-03-17T05:58:03.043Z,101393.42
2018-03-17T05:59:08.169Z,101394.05
2018-03-17T06:00:15.315Z,101384.36
2018-03-17T06:01:20.300Z,101386.61
2018-03-17T06:02:25.677Z,101379.45
2018-03-17T06:03:30.277Z,101376.55
2018-03-17T06:04:35.162Z,101378.29
2018-03-17T06:05:39.956Z,101388.98
2018-03-17T06:06:44.890Z,101390.61
2018-03-17T06:07:51.093Z,101385.90
2018-03-17T06:08:56.033Z,101393.24
2018-03-17T06:10:01.013Z,101379.98
2018-03-17T06:11:06.188Z,101394.09
2018-03-17T06:12:11.045Z,101386.81
2018-03-17T06:13:16.059Z,101373.52
2018-03-17T06:14:22.671Z,101388.70
2018-03-17T06:15:28.982Z,101394.72
2018-03-17T06:16:33.922Z,101392.62
2018-03-17T06:17:39.135Z,101367.27
2018-03-17T06:18:44.499Z,101391.70
2018-03-17T06:19:50.234Z,101392.15
2018-03-17T06:20:55.179Z,101370.30
2018-03-17T06:22:00.083Z,101393.63
2018-03-17T06:23:04.870Z,101382.19
2018-03-17T06:24:09.793Z,101382.37
2018-03-17T06:25:14.828Z,101395.41
2018-03-17T06:26:19.824Z,101366.34
2018-03-17T06:27:25.120Z,101394.53
2018-03-17T06:28:30.121Z,101381.33
2018-03-17T06:29:35.238Z,101391.88
2018-03-17T06:30:40.872Z,101386.06
2018-03-17T06:31:47.156Z,101382.60
2018-03-17T06:32:53.016Z,101372.45
2018-03-17T06:33:58.385Z,101396.37
2018-03-17T06:35:03.290Z,101396.88
2018-03-17T06:36:08.738Z,101402.74
2018-03-17T06:37:14.401Z,101403.48
2018-03-17T06:38:19.389Z,101403.30
2018-03-17T06:39:24.743Z,101389.53
2018-03-17T06:40:31.064Z,101391.78
2018-03-17T06:41:36.548Z,101373.63
2018-03-17T06:42:41.689Z,101373.63
2018-03-17T06:43:47.386Z,101396.52
2018-03-17T06:44:52.880Z,101403.09
2018-03-17T06:45:58.337Z,101384.08
2018-03-17T06:47:04.245Z,101389.34
2018-03-17T06:48:09.473Z,101386.50
2018-03-17T06:49:14.843Z,101360.28
2018-03-17T06:50:20.154Z,101396.67
2018-03-17T06:51:25.143Z,101392.45
2018-03-17T06:52:30.349Z,101395.63
2018-03-17T06:53:35.560Z,101383.03
2018-03-17T06:54:40.714Z,101396.63
2018-03-17T06:55:45.632Z,101392.77
2018-03-17T06:56:50.968Z,101387.73
2018-03-17T06:57:56.303Z,101405.70
2018-03-17T06:59:01.678Z,101392.77
2018-03-17T07:00:09.352Z,101389.29
2018-03-17T07:01:15.016Z,101392.77
2018-03-17T07:02:20.299Z,101405.38
2018-03-17T07:03:25.415Z,101382.05
2018-03-17T07:04:30.363Z,101400.78
2018-03-17T07:05:35.606Z,101400.75
2018-03-17T07:06:41.967Z,101395.89
2018-03-17T07:07:48.976Z,101374.67
2018-03-17T07:08:54.930Z,101393.95
2018-03-17T07:10:00.402Z,101391.12
2018-03-17T07:11:05.727Z,101388.93
2018-03-17T07:12:11.303Z,101403.72
2018-03-17T07:13:16.822Z,101370.82
2018-03-17T07:14:22.531Z,101385.80
2018-03-17T07:15:27.818Z,101380.61
2018-03-17T07:16:33.116Z,101387.33
2018-03-17T07:17:38.600Z,101388.38
2018-03-17T07:18:43.926Z,101400.34
2018-03-17T07:19:48.972Z,101401.87
2018-03-17T07:20:54.291Z,101405.89
2018-03-17T07:21:59.478Z,101386.44
2018-03-17T07:23:04.745Z,101393.66
2018-03-17T07:24:10.371Z,101384.75
2018-03-17T07:25:15.383Z,101394.73
2018-03-17T07:26:20.627Z,101389.50
2018-03-17T07:27:25.763Z,101370.41
2018-03-17T07:28:30.877Z,101392.27
2018-03-17T07:29:35.966Z,101374.98
2018-03-17T07:30:42.244Z,101382.95
2018-03-17T07:31:48.078Z,101380.70
2018-03-17T07:32:53.488Z,101389.74
2018-03-17T07:33:58.498Z,101372.45
2018-03-17T07:35:03.542Z,101393.41
2018-03-17T07:36:08.741Z,101372.00
2018-03-17T07:37:14.184Z,101375.08
2018-03-17T07:38:19.276Z,101384.68
2018-03-17T07:39:24.244Z,101385.59
2018-03-17T07:40:29.691Z,101389.72
2018-03-17T07:41:34.984Z,101386.56
2018-03-17T07:42:39.977Z,101377.63
2018-03-17T07:43:45.421Z,101393.56
2018-03-17T07:44:50.545Z,101392.13
2018-03-17T07:45:56.959Z,101394.06
2018-03-17T07:47:02.850Z,101397.61
2018-03-17T07:48:07.869Z,101383.64
2018-03-17T07:49:13.287Z,101380.91
2018-03-17T07:50:18.194Z,101394.25
2018-03-17T07:51:23.391Z,101373.66
2018-03-17T07:52:28.351Z,101380.50
2018-03-17T07:53:33.537Z,101373.88
2018-03-17T07:54:38.480Z,101377.42
2018-03-17T07:55:43.659Z,101382.39
2018-03-17T07:56:48.529Z,101387.17
2018-03-17T07:57:53.320Z,101374.70
2018-03-17T07:58:58.467Z,101347.46
2018-03-17T08:00:05.568Z,101342.74
2018-03-17T08:01:11.132Z,101380.51
2018-03-17T08:02:16.542Z,101372.56
2018-03-17T08:03:21.660Z,101371.11
2018-03-17T08:04:26.524Z,101377.11
2018-03-17T08:05:31.572Z,101354.60
2018-03-17T08:06:36.410Z,101370.50
2018-03-17T08:07:41.366Z,101381.63
2018-03-17T08:08:46.467Z,101384.48
2018-03-17T08:09:51.402Z,101380.22
2018-03-17T08:10:56.387Z,101388.03
2018-03-17T08:12:02.013Z,101373.62
2018-03-17T08:13:07.056Z,101368.63
2018-03-17T08:14:12.263Z,101382.80
2018-03-17T08:15:17.647Z,101375.30
2018-03-17T08:16:23.019Z,101381.03
2018-03-17T08:17:27.808Z,101372.80
2018-03-17T08:18:32.616Z,101371.85
2018-03-17T08:19:37.767Z,101371.86
2018-03-17T08:20:42.514Z,101364.16
2018-03-17T08:21:47.364Z,101364.55
2018-03-17T08:22:53.119Z,101353.75
2018-03-17T08:23:58.790Z,101368.95
2018-03-17T08:25:04.208Z,101355.91
2018-03-17T08:26:09.472Z,101358.36
2018-03-17T08:27:14.460Z,101327.20
2018-03-17T08:28:19.603Z,101364.12
2018-03-17T08:29:24.368Z,101359.36
2018-03-17T08:30:29.400Z,101364.94
2018-03-17T08:31:34.436Z,101366.16
2018-03-17T08:32:39.663Z,101371.19
2018-03-17T08:33:44.366Z,101342.86
2018-03-17T08:34:49.012Z,101357.34
2018-03-17T08:35:54.657Z,101379.31
2018-03-17T08:36:59.398Z,101377.61
2018-03-17T08:38:04.260Z,101362.64
2018-03-17T08:39:09.340Z,101377.88
2018-03-17T08:40:14.208Z,101369.23
2018-03-17T08:41:19.400Z,101353.76
2018-03-17T08:42:24.345Z,101358.92
2018-03-17T08:43:29.221Z,101372.41
2018-03-17T08:44:34.053Z,101374.84
2018-03-17T08:45:38.804Z,101372.55
2018-03-17T08:46:43.558Z,101371.60
2018-03-17T08:47:49.083Z,101366.13
2018-03-17T08:48:54.572Z,101376.33
2018-03-17T08:49:59.714Z,101371.78
2018-03-17T08:51:04.557Z,101348.86
2018-03-17T08:52:09.354Z,101374.63
2018-03-17T08:53:14.150Z,101372.72
2018-03-17T08:54:18.930Z,101381.59
2018-03-17T08:55:23.697Z,101365.82
2018-03-17T08:56:28.766Z,101369.41
2018-03-17T08:57:33.736Z,101351.48
2018-03-17T08:58:38.584Z,101363.66
2018-03-17T08:59:43.305Z,101335.87
2018-03-17T09:00:48.256Z,101370.52
2018-03-17T09:01:53.014Z,101352.67
2018-03-17T09:02:58.469Z,101366.53
2018-03-17T09:04:04.169Z,101369.66
2018-03-17T09:05:08.854Z,101358.81
2018-03-17T09:06:13.641Z,101350.94
2018-03-17T09:07:18.514Z,101361.55
2018-03-17T09:08:23.532Z,101373.53
2018-03-17T09:09:28.573Z,101363.39
2018-03-17T09:10:33.434Z,101361.50
2018-03-17T09:11:38.143Z,101367.47
2018-03-17T09:12:42.792Z,101368.10
2018-03-17T09:13:47.741Z,101355.71
2018-03-17T09:14:52.719Z,101367.04
2018-03-17T09:15:58.397Z,101380.10
2018-03-17T09:17:03.134Z,101368.30
2018-03-17T09:18:07.932Z,101376.44
2018-03-17T09:19:12.684Z,101365.73
2018-03-17T09:20:17.672Z,101360.14
2018-03-17T09:21:22.847Z,101373.17
2018-03-17T09:22:27.468Z,101379.84
2018-03-17T09:23:32.103Z,101365.87
2018-03-17T09:24:37.264Z,101366.83
2018-03-17T09:25:42.228Z,101360.94
2018-03-17T09:26:46.833Z,101342.61
2018-03-17T09:27:52.895Z,101352.87
2018-03-17T09:28:57.701Z,101283.98
2018-03-17T09:30:04.083Z,101360.42
2018-03-17T09:31:08.911Z,101359.18
2018-03-17T09:32:13.616Z,101366.27
2018-03-17T09:33:18.583Z,101370.73
2018-03-17T09:35:30.765Z,101360.74
2018-03-17T09:36:35.556Z,101337.50
2018-03-17T09:37:40.369Z,101322.89
2018-03-17T09:38:45.000Z,101375.35
2018-03-17T09:39:49.831Z,101342.84
2018-03-17T09:40:54.960Z,101343.81
2018-03-17T09:41:59.753Z,101365.17
2018-03-17T09:43:04.478Z,101356.08
2018-03-17T09:44:09.192Z,101353.09
2018-03-17T09:45:16.065Z,101366.32
2018-03-17T09:46:20.883Z,101359.02
2018-03-17T09:47:25.915Z,101349.50
2018-03-17T09:48:30.635Z,101358.66
2018-03-17T09:49:35.347Z,101333.72
2018-03-17T09:50:40.050Z,101361.53
2018-03-17T09:51:44.785Z,101346.13
2018-03-17T09:52:49.595Z,101366.27
2018-03-17T09:53:54.233Z,101348.87
2018-03-17T09:54:59.000Z,101356.19
2018-03-17T09:56:03.740Z,101365.29
2018-03-17T09:57:08.439Z,101347.53
2018-03-17T09:58:13.296Z,101354.66
2018-03-17T09:59:18.516Z,101352.28
2018-03-17T10:00:23.557Z,101363.48
2018-03-17T10:01:28.302Z,101358.23
2018-03-17T10:02:32.982Z,101347.11
2018-03-17T10:03:37.545Z,101333.58
2018-03-17T10:04:42.314Z,101367.50
2018-03-17T10:05:46.975Z,101373.90
2018-03-17T10:06:52.239Z,101348.98
2018-03-17T10:07:57.037Z,101366.98
2018-03-17T10:09:01.788Z,101350.69
2018-03-17T10:10:07.503Z,101345.58
2018-03-17T10:11:12.551Z,101352.95
2018-03-17T10:12:17.403Z,101356.09
2018-03-17T10:13:22.044Z,101363.98
2018-03-17T10:14:26.981Z,101362.22
2018-03-17T10:15:32.153Z,101349.69
2018-03-17T10:16:36.716Z,101348.47
2018-03-17T10:17:41.826Z,101340.54
2018-03-17T10:18:46.594Z,101359.91
2018-03-17T10:19:51.238Z,101359.55
2018-03-17T10:20:56.628Z,101364.59
2018-03-17T10:22:01.359Z,101350.80
2018-03-17T10:23:06.112Z,101328.48
2018-03-17T10:24:10.843Z,101358.13
2018-03-17T10:25:16.358Z,101352.42
2018-03-17T10:26:21.068Z,101365.52
2018-03-17T10:27:25.866Z,101348.17
2018-03-17T10:28:30.533Z,101342.09
2018-03-17T10:29:35.648Z,101354.12
2018-03-17T10:30:41.160Z,101339.17
2018-03-17T10:31:45.836Z,101355.27
2018-03-17T10:32:51.551Z,101340.00
2018-03-17T10:33:56.234Z,101347.44
2018-03-17T10:35:00.824Z,101323.91
2018-03-17T10:36:05.899Z,101338.08
2018-03-17T10:37:10.676Z,101335.41
2018-03-17T10:38:15.320Z,101337.61
2018-03-17T10:39:20.261Z,101333.19
2018-03-17T10:40:24.984Z,101356.95
2018-03-17T10:41:29.551Z,101328.84
2018-03-17T10:42:34.623Z,101342.09
2018-03-17T10:43:39.689Z,101337.91
2018-03-17T10:44:44.479Z,101349.63
2018-03-17T10:45:50.439Z,101361.86
2018-03-17T10:46:55.162Z,101339.14
2018-03-17T10:47:59.796Z,101338.61
2018-03-17T10:49:04.830Z,101332.30
2018-03-17T10:50:09.667Z,101357.52
2018-03-17T10:51:14.446Z,101337.38
2018-03-17T10:52:19.363Z,101342.03
2018-03-17T10:53:24.035Z,101345.92
2018-03-17T10:54:28.754Z,101308.86
2018-03-17T10:55:33.538Z,101321.86
2018-03-17T10:56:38.154Z,101328.56
2018-03-17T10:57:43.031Z,101331.73
2018-03-17T10:58:47.886Z,101332.67
2018-03-17T10:59:52.627Z,101332.42
2018-03-17T11:01:00.472Z,101325.01
2018-03-17T11:02:05.869Z,101322.24
2018-03-17T11:03:10.702Z,101314.36
2018-03-17T11:04:15.313Z,101325.16
2018-03-17T11:05:20.159Z,101319.32
2018-03-17T11:06:24.833Z,101316.75
2018-03-17T11:07:29.601Z,101303.02
2018-03-17T11:08:34.309Z,101319.48
2018-03-17T11:09:39.149Z,101322.63
2018-03-17T11:10:44.012Z,101310.61
2018-03-17T11:11:49.163Z,101320.05
2018-03-17T11:12:54.831Z,101335.31
2018-03-17T11:13:59.682Z,101314.09
2018-03-17T11:15:06.093Z,101318.19
2018-03-17T11:16:11.114Z,101320.64
2018-03-17T11:17:15.766Z,101340.67
2018-03-17T11:18:21.058Z,101315.33
2018-03-17T11:19:25.702Z,101296.34
2018-03-17T11:20:30.371Z,101316.41
2018-03-17T11:21:35.769Z,101321.92
2018-03-17T11:22:40.502Z,101323.09
2018-03-17T11:23:45.271Z,101305.05
2018-03-17T11:24:50.347Z,101300.16
2018-03-17T11:25:55.050Z,101303.36
2018-03-17T11:27:00.781Z,101312.02
2018-03-17T11:28:05.552Z,101313.47
2018-03-17T11:29:10.315Z,101306.98
2018-03-17T11:30:18.458Z,101302.00
2018-03-17T11:31:23.162Z,101305.81
2018-03-17T11:32:27.782Z,101310.70
2018-03-17T11:33:32.509Z,101305.96
2018-03-17T11:34:37.413Z,101287.19
2018-03-17T11:35:42.169Z,101294.64
2018-03-17T11:36:46.977Z,101313.25
2018-03-17T11:37:52.688Z,101279.67
2018-03-17T11:38:58.083Z,101299.17
2018-03-17T11:40:03.166Z,101307.02
2018-03-17T11:41:07.999Z,101323.98
2018-03-17T11:42:12.677Z,101309.57
2018-03-17T11:43:17.284Z,101320.56
2018-03-17T11:44:22.296Z,101307.64
2018-03-17T11:45:27.274Z,101312.94
2018-03-17T11:46:32.489Z,101296.52
2018-03-17T11:47:37.173Z,101305.26
2018-03-17T11:48:41.906Z,101289.95
2018-03-17T11:49:46.730Z,101314.39
2018-03-17T11:50:52.336Z,101310.39
2018-03-17T11:51:57.092Z,101290.13
2018-03-17T11:53:01.663Z,101302.00
2018-03-17T11:54:06.360Z,101278.11
2018-03-17T11:55:11.128Z,101300.66
2018-03-17T11:56:16.131Z,101287.89
2018-03-17T11:57:20.751Z,101284.06
2018-03-17T11:58:25.487Z,101275.78
2018-03-17T11:59:30.111Z,101289.69
2018-03-17T12:00:34.853Z,101293.84
2018-03-17T12:01:39.588Z,101284.08
2018-03-17T12:02:44.442Z,101291.26
2018-03-17T12:03:49.122Z,101294.16
2018-03-17T12:04:54.535Z,101271.30
2018-03-17T12:05:59.321Z,101287.70
2018-03-17T12:07:04.958Z,101288.34
2018-03-17T12:08:10.105Z,101269.67
2018-03-17T12:09:14.941Z,101277.94
2018-03-17T12:10:19.737Z,101265.66
2018-03-17T12:11:24.533Z,101265.22
2018-03-17T12:12:29.354Z,101258.12
2018-03-17T12:13:34.018Z,101271.06
2018-03-17T12:14:38.626Z,101271.31
2018-03-17T12:15:43.664Z,101262.91
2018-03-17T12:16:48.357Z,101272.16
2018-03-17T12:17:53.019Z,101268.63
2018-03-17T12:18:57.832Z,101262.48
2018-03-17T12:20:02.919Z,101259.23
2018-03-17T12:21:07.806Z,101247.48
2018-03-17T12:22:13.920Z,101274.94
2018-03-17T12:23:18.916Z,101288.33
2018-03-17T12:24:23.737Z,101260.66